sensor_id;sensor_type;location;lat;lon;timestamp;P1;durP1;ratioP1;P2;durP2;ratioP2
14276;SDS011;7222;57.346;12.150;2023-05-14T00:01:19;4.43;;;4.13;;
14276;SDS011;7222;57.346;12.150;2023-05-14T00:03:46;4.40;;;4.10;;
14276;SDS011;7222;57.346;12.150;2023-05-14T00:06:15;4.40;;;4.10;;
14276;SDS011;7222;57.346;12.150;2023-05-14T00:08:42;4.60;;;4.20;;
14276;SDS011;7222;57.346;12.150;2023-05-14T00:11:09;4.07;;;3.77;;
14276;SDS011;7222;57.346;12.150;2023-05-14T00:13:36;4.13;;;3.80;;
14276;SDS011;7222;57.346;12.150;2023-05-14T00:16:03;4.50;;;4.10;;
14276;SDS011;7222;57.346;12.150;2023-05-14T00:18:30;4.93;;;4.30;;
14276;SDS011;7222;57.346;12.150;2023-05-14T00:20:57;5.03;;;4.07;;
14276;SDS011;7222;57.346;12.150;2023-05-14T00:23:25;4.27;;;3.90;;
14276;SDS011;7222;57.346;12.150;2023-05-14T00:25:52;4.63;;;4.23;;
14276;SDS011;7222;57.346;12.150;2023-05-14T00:28:19;4.20;;;3.77;;
14276;SDS011;7222;57.346;12.150;2023-05-14T00:30:46;4.63;;;4.00;;
14276;SDS011;7222;57.346;12.150;2023-05-14T00:33:13;4.20;;;3.90;;
14276;SDS011;7222;57.346;12.150;2023-05-14T00:35:40;4.63;;;4.03;;
14276;SDS011;7222;57.346;12.150;2023-05-14T00:38:07;3.90;;;3.60;;
14276;SDS011;7222;57.346;12.150;2023-05-14T00:40:35;4.10;;;3.80;;
14276;SDS011;7222;57.346;12.150;2023-05-14T00:43:02;4.33;;;3.83;;
14276;SDS011;7222;57.346;12.150;2023-05-14T00:45:29;4.00;;;3.70;;
14276;SDS011;7222;57.346;12.150;2023-05-14T00:47:56;4.97;;;4.17;;
14276;SDS011;7222;57.346;12.150;2023-05-14T00:50:23;3.80;;;3.50;;
14276;SDS011;7222;57.346;12.150;2023-05-14T00:52:50;4.80;;;4.10;;
14276;SDS011;7222;57.346;12.150;2023-05-14T00:55:17;4.17;;;3.73;;
14276;SDS011;7222;57.346;12.150;2023-05-14T00:57:45;4.40;;;4.00;;
14276;SDS011;7222;57.346;12.150;2023-05-14T01:00:12;3.77;;;3.43;;
14276;SDS011;7222;57.346;12.150;2023-05-14T01:02:40;3.77;;;3.47;;
14276;SDS011;7222;57.346;12.150;2023-05-14T01:05:07;3.83;;;3.53;;
14276;SDS011;7222;57.346;12.150;2023-05-14T01:07:36;4.57;;;4.00;;
14276;SDS011;7222;57.346;12.150;2023-05-14T01:10:10;4.13;;;3.83;;
14276;SDS011;7222;57.346;12.150;2023-05-14T01:12:42;4.13;;;3.83;;
14276;SDS011;7222;57.346;12.150;2023-05-14T01:15:17;4.93;;;4.43;;
14276;SDS011;7222;57.346;12.150;2023-05-14T01:17:47;4.23;;;3.83;;
14276;SDS011;7222;57.346;12.150;2023-05-14T01:20:18;4.67;;;3.70;;
14276;SDS011;7222;57.346;12.150;2023-05-14T01:22:47;4.80;;;4.40;;
14276;SDS011;7222;57.346;12.150;2023-05-14T01:25:14;4.40;;;4.00;;
14276;SDS011;7222;57.346;12.150;2023-05-14T01:27:41;4.20;;;3.90;;
14276;SDS011;7222;57.346;12.150;2023-05-14T01:30:22;5.27;;;4.20;;
14276;SDS011;7222;57.346;12.150;2023-05-14T01:32:55;4.13;;;3.80;;
14276;SDS011;7222;57.346;12.150;2023-05-14T01:35:26;4.00;;;3.70;;
14276;SDS011;7222;57.346;12.150;2023-05-14T01:37:57;4.60;;;4.30;;
14276;SDS011;7222;57.346;12.150;2023-05-14T01:40:26;4.07;;;3.70;;
14276;SDS011;7222;57.346;12.150;2023-05-14T01:42:54;3.60;;;3.30;;
14276;SDS011;7222;57.346;12.150;2023-05-14T01:45:21;4.17;;;3.77;;
14276;SDS011;7222;57.346;12.150;2023-05-14T01:47:49;4.30;;;3.50;;
14276;SDS011;7222;57.346;12.150;2023-05-14T01:50:16;4.37;;;3.93;;
14276;SDS011;7222;57.346;12.150;2023-05-14T01:52:43;4.23;;;3.93;;
14276;SDS011;7222;57.346;12.150;2023-05-14T01:55:13;4.97;;;4.37;;
14276;SDS011;7222;57.346;12.150;2023-05-14T01:57:42;4.60;;;4.20;;
14276;SDS011;7222;57.346;12.150;2023-05-14T02:00:09;6.13;;;4.00;;
14276;SDS011;7222;57.346;12.150;2023-05-14T02:02:36;4.40;;;4.00;;
14276;SDS011;7222;57.346;12.150;2023-05-14T02:05:04;4.70;;;4.27;;
14276;SDS011;7222;57.346;12.150;2023-05-14T02:07:31;7.03;;;3.73;;
14276;SDS011;7222;57.346;12.150;2023-05-14T02:09:58;4.20;;;3.70;;
14276;SDS011;7222;57.346;12.150;2023-05-14T02:12:26;4.13;;;3.83;;
14276;SDS011;7222;57.346;12.150;2023-05-14T02:14:53;4.00;;;3.70;;
14276;SDS011;7222;57.346;12.150;2023-05-14T02:17:20;4.30;;;3.90;;
14276;SDS011;7222;57.346;12.150;2023-05-14T02:19:47;4.10;;;3.80;;
14276;SDS011;7222;57.346;12.150;2023-05-14T02:22:13;4.20;;;3.80;;
14276;SDS011;7222;57.346;12.150;2023-05-14T02:24:40;4.20;;;3.90;;
14276;SDS011;7222;57.346;12.150;2023-05-14T02:27:07;4.17;;;3.80;;
14276;SDS011;7222;57.346;12.150;2023-05-14T02:29:38;5.43;;;4.23;;
14276;SDS011;7222;57.346;12.150;2023-05-14T02:32:05;4.30;;;3.90;;
14276;SDS011;7222;57.346;12.150;2023-05-14T02:34:32;4.77;;;3.83;;
14276;SDS011;7222;57.346;12.150;2023-05-14T02:36:59;4.87;;;4.37;;
14276;SDS011;7222;57.346;12.150;2023-05-14T02:39:26;4.47;;;4.07;;
14276;SDS011;7222;57.346;12.150;2023-05-14T02:41:53;4.90;;;4.40;;
14276;SDS011;7222;57.346;12.150;2023-05-14T02:44:21;4.77;;;4.23;;
14276;SDS011;7222;57.346;12.150;2023-05-14T02:46:49;4.27;;;3.87;;
14276;SDS011;7222;57.346;12.150;2023-05-14T02:49:16;4.10;;;3.70;;
14276;SDS011;7222;57.346;12.150;2023-05-14T02:51:43;4.43;;;4.00;;
14276;SDS011;7222;57.346;12.150;2023-05-14T02:54:10;3.83;;;3.53;;
14276;SDS011;7222;57.346;12.150;2023-05-14T02:56:37;4.50;;;4.07;;
14276;SDS011;7222;57.346;12.150;2023-05-14T02:59:03;4.60;;;4.03;;
14276;SDS011;7222;57.346;12.150;2023-05-14T03:01:30;4.47;;;4.07;;
14276;SDS011;7222;57.346;12.150;2023-05-14T03:03:59;4.00;;;3.70;;
14276;SDS011;7222;57.346;12.150;2023-05-14T03:06:25;4.90;;;4.40;;
14276;SDS011;7222;57.346;12.150;2023-05-14T03:08:52;4.67;;;4.27;;
14276;SDS011;7222;57.346;12.150;2023-05-14T03:11:19;4.90;;;4.20;;
14276;SDS011;7222;57.346;12.150;2023-05-14T03:13:46;5.17;;;4.17;;
14276;SDS011;7222;57.346;12.150;2023-05-14T03:16:13;4.50;;;4.10;;
14276;SDS011;7222;57.346;12.150;2023-05-14T03:18:40;4.47;;;4.03;;
14276;SDS011;7222;57.346;12.150;2023-05-14T03:21:08;4.33;;;3.90;;
14276;SDS011;7222;57.346;12.150;2023-05-14T03:23:35;4.80;;;4.30;;
14276;SDS011;7222;57.346;12.150;2023-05-14T03:26:02;6.63;;;4.20;;
14276;SDS011;7222;57.346;12.150;2023-05-14T03:28:29;4.57;;;4.13;;
14276;SDS011;7222;57.346;12.150;2023-05-14T03:30:56;4.73;;;4.20;;
14276;SDS011;7222;57.346;12.150;2023-05-14T03:33:23;4.30;;;3.93;;
14276;SDS011;7222;57.346;12.150;2023-05-14T03:35:50;6.10;;;4.33;;
14276;SDS011;7222;57.346;12.150;2023-05-14T03:38:18;4.50;;;3.90;;
14276;SDS011;7222;57.346;12.150;2023-05-14T03:40:45;4.93;;;4.10;;
14276;SDS011;7222;57.346;12.150;2023-05-14T03:43:12;4.80;;;4.10;;
14276;SDS011;7222;57.346;12.150;2023-05-14T03:45:40;4.87;;;3.80;;
14276;SDS011;7222;57.346;12.150;2023-05-14T03:48:07;5.53;;;3.80;;
14276;SDS011;7222;57.346;12.150;2023-05-14T03:50:34;5.30;;;4.00;;
14276;SDS011;7222;57.346;12.150;2023-05-14T03:53:00;5.80;;;4.10;;
14276;SDS011;7222;57.346;12.150;2023-05-14T03:55:29;5.47;;;3.93;;
14276;SDS011;7222;57.346;12.150;2023-05-14T03:57:55;4.67;;;3.90;;
14276;SDS011;7222;57.346;12.150;2023-05-14T04:00:22;4.23;;;3.83;;
14276;SDS011;7222;57.346;12.150;2023-05-14T04:02:49;5.80;;;3.90;;
14276;SDS011;7222;57.346;12.150;2023-05-14T04:05:16;4.27;;;3.97;;
14276;SDS011;7222;57.346;12.150;2023-05-14T04:07:43;4.80;;;4.30;;
14276;SDS011;7222;57.346;12.150;2023-05-14T04:10:10;4.13;;;3.60;;
14276;SDS011;7222;57.346;12.150;2023-05-14T04:12:39;5.77;;;3.47;;
14276;SDS011;7222;57.346;12.150;2023-05-14T04:15:06;4.17;;;3.77;;
14276;SDS011;7222;57.346;12.150;2023-05-14T04:17:34;4.70;;;4.30;;
14276;SDS011;7222;57.346;12.150;2023-05-14T04:20:01;4.87;;;3.70;;
14276;SDS011;7222;57.346;12.150;2023-05-14T04:22:28;4.10;;;3.80;;
14276;SDS011;7222;57.346;12.150;2023-05-14T04:24:56;4.00;;;3.70;;
14276;SDS011;7222;57.346;12.150;2023-05-14T04:27:23;4.47;;;4.00;;
14276;SDS011;7222;57.346;12.150;2023-05-14T04:29:51;4.53;;;3.90;;
14276;SDS011;7222;57.346;12.150;2023-05-14T04:32:18;4.87;;;4.10;;
14276;SDS011;7222;57.346;12.150;2023-05-14T04:34:45;5.97;;;3.90;;
14276;SDS011;7222;57.346;12.150;2023-05-14T04:37:12;5.57;;;3.90;;
14276;SDS011;7222;57.346;12.150;2023-05-14T04:39:39;5.03;;;3.87;;
14276;SDS011;7222;57.346;12.150;2023-05-14T04:42:07;6.37;;;4.03;;
14276;SDS011;7222;57.346;12.150;2023-05-14T04:44:35;4.17;;;3.63;;
14276;SDS011;7222;57.346;12.150;2023-05-14T04:47:04;4.47;;;4.10;;
14276;SDS011;7222;57.346;12.150;2023-05-14T04:49:32;4.33;;;3.93;;
14276;SDS011;7222;57.346;12.150;2023-05-14T04:51:59;5.90;;;4.00;;
14276;SDS011;7222;57.346;12.150;2023-05-14T04:54:26;4.30;;;3.90;;
14276;SDS011;7222;57.346;12.150;2023-05-14T04:56:53;5.77;;;3.93;;
14276;SDS011;7222;57.346;12.150;2023-05-14T04:59:21;6.20;;;4.13;;
14276;SDS011;7222;57.346;12.150;2023-05-14T05:01:48;5.40;;;3.80;;
14276;SDS011;7222;57.346;12.150;2023-05-14T05:04:17;4.63;;;4.20;;
14276;SDS011;7222;57.346;12.150;2023-05-14T05:06:44;5.00;;;4.40;;
14276;SDS011;7222;57.346;12.150;2023-05-14T05:09:10;4.73;;;3.80;;
14276;SDS011;7222;57.346;12.150;2023-05-14T05:11:37;5.70;;;4.20;;
14276;SDS011;7222;57.346;12.150;2023-05-14T05:14:04;4.13;;;3.60;;
14276;SDS011;7222;57.346;12.150;2023-05-14T05:16:31;5.37;;;3.83;;
14276;SDS011;7222;57.346;12.150;2023-05-14T05:18:58;4.27;;;3.90;;
14276;SDS011;7222;57.346;12.150;2023-05-14T05:21:26;4.50;;;4.10;;
14276;SDS011;7222;57.346;12.150;2023-05-14T05:23:53;5.50;;;4.30;;
14276;SDS011;7222;57.346;12.150;2023-05-14T05:26:20;5.23;;;3.90;;
14276;SDS011;7222;57.346;12.150;2023-05-14T05:28:48;5.20;;;4.37;;
14276;SDS011;7222;57.346;12.150;2023-05-14T05:31:15;5.07;;;4.67;;
14276;SDS011;7222;57.346;12.150;2023-05-14T05:33:42;5.03;;;3.73;;
14276;SDS011;7222;57.346;12.150;2023-05-14T05:36:09;4.03;;;3.73;;
14276;SDS011;7222;57.346;12.150;2023-05-14T05:38:37;5.33;;;3.70;;
14276;SDS011;7222;57.346;12.150;2023-05-14T05:41:04;5.37;;;4.70;;
14276;SDS011;7222;57.346;12.150;2023-05-14T05:43:31;5.97;;;4.07;;
14276;SDS011;7222;57.346;12.150;2023-05-14T05:45:59;4.40;;;4.00;;
14276;SDS011;7222;57.346;12.150;2023-05-14T05:48:26;4.57;;;3.80;;
14276;SDS011;7222;57.346;12.150;2023-05-14T05:50:52;4.50;;;4.10;;
14276;SDS011;7222;57.346;12.150;2023-05-14T05:53:19;4.27;;;3.90;;
14276;SDS011;7222;57.346;12.150;2023-05-14T05:55:48;4.40;;;4.00;;
14276;SDS011;7222;57.346;12.150;2023-05-14T05:58:16;6.20;;;4.07;;
14276;SDS011;7222;57.346;12.150;2023-05-14T06:00:43;5.20;;;3.87;;
14276;SDS011;7222;57.346;12.150;2023-05-14T06:03:10;4.70;;;4.10;;
14276;SDS011;7222;57.346;12.150;2023-05-14T06:05:37;5.17;;;4.60;;
14276;SDS011;7222;57.346;12.150;2023-05-14T06:08:04;6.70;;;4.57;;
14276;SDS011;7222;57.346;12.150;2023-05-14T06:10:32;5.07;;;4.53;;
14276;SDS011;7222;57.346;12.150;2023-05-14T06:13:00;4.63;;;3.90;;
14276;SDS011;7222;57.346;12.150;2023-05-14T06:15:27;4.43;;;3.80;;
14276;SDS011;7222;57.346;12.150;2023-05-14T06:17:53;5.27;;;4.67;;
14276;SDS011;7222;57.346;12.150;2023-05-14T06:20:20;4.90;;;4.50;;
14276;SDS011;7222;57.346;12.150;2023-05-14T06:22:47;5.40;;;4.40;;
14276;SDS011;7222;57.346;12.150;2023-05-14T06:25:14;4.90;;;4.40;;
14276;SDS011;7222;57.346;12.150;2023-05-14T06:27:41;4.87;;;4.23;;
14276;SDS011;7222;57.346;12.150;2023-05-14T06:30:10;4.30;;;3.90;;
14276;SDS011;7222;57.346;12.150;2023-05-14T06:32:38;6.00;;;4.30;;
14276;SDS011;7222;57.346;12.150;2023-05-14T06:35:05;5.17;;;4.30;;
14276;SDS011;7222;57.346;12.150;2023-05-14T06:37:32;4.40;;;4.00;;
14276;SDS011;7222;57.346;12.150;2023-05-14T06:39:59;4.80;;;4.10;;
14276;SDS011;7222;57.346;12.150;2023-05-14T06:42:27;4.77;;;4.27;;
14276;SDS011;7222;57.346;12.150;2023-05-14T06:44:55;4.87;;;4.47;;
14276;SDS011;7222;57.346;12.150;2023-05-14T06:47:23;5.53;;;4.23;;
14276;SDS011;7222;57.346;12.150;2023-05-14T06:49:50;4.77;;;4.37;;
14276;SDS011;7222;57.346;12.150;2023-05-14T06:52:17;6.17;;;4.47;;
14276;SDS011;7222;57.346;12.150;2023-05-14T06:54:44;5.17;;;4.53;;
14276;SDS011;7222;57.346;12.150;2023-05-14T06:57:11;4.80;;;4.00;;
14276;SDS011;7222;57.346;12.150;2023-05-14T06:59:37;4.47;;;4.07;;
14276;SDS011;7222;57.346;12.150;2023-05-14T07:02:05;4.57;;;4.03;;
14276;SDS011;7222;57.346;12.150;2023-05-14T07:04:34;4.80;;;4.47;;
14276;SDS011;7222;57.346;12.150;2023-05-14T07:07:00;4.30;;;3.90;;
14276;SDS011;7222;57.346;12.150;2023-05-14T07:09:27;4.97;;;4.53;;
14276;SDS011;7222;57.346;12.150;2023-05-14T07:11:54;5.23;;;4.73;;
14276;SDS011;7222;57.346;12.150;2023-05-14T07:14:21;4.43;;;4.03;;
14276;SDS011;7222;57.346;12.150;2023-05-14T07:16:49;4.87;;;4.37;;
14276;SDS011;7222;57.346;12.150;2023-05-14T07:19:16;4.93;;;4.57;;
14276;SDS011;7222;57.346;12.150;2023-05-14T07:21:45;5.23;;;4.13;;
14276;SDS011;7222;57.346;12.150;2023-05-14T07:24:12;4.80;;;4.33;;
14276;SDS011;7222;57.346;12.150;2023-05-14T07:26:39;4.27;;;3.87;;
14276;SDS011;7222;57.346;12.150;2023-05-14T07:29:06;4.30;;;3.90;;
14276;SDS011;7222;57.346;12.150;2023-05-14T07:31:33;4.77;;;4.27;;
14276;SDS011;7222;57.346;12.150;2023-05-14T07:34:00;4.63;;;4.23;;
14276;SDS011;7222;57.346;12.150;2023-05-14T07:36:27;4.43;;;4.13;;
14276;SDS011;7222;57.346;12.150;2023-05-14T07:38:56;4.90;;;4.40;;
14276;SDS011;7222;57.346;12.150;2023-05-14T07:41:23;4.20;;;3.80;;
14276;SDS011;7222;57.346;12.150;2023-05-14T07:43:50;5.70;;;4.30;;
14276;SDS011;7222;57.346;12.150;2023-05-14T07:46:17;4.47;;;3.93;;
14276;SDS011;7222;57.346;12.150;2023-05-14T07:48:45;4.77;;;4.37;;
14276;SDS011;7222;57.346;12.150;2023-05-14T07:51:12;7.10;;;4.87;;
14276;SDS011;7222;57.346;12.150;2023-05-14T07:53:39;5.00;;;4.40;;
14276;SDS011;7222;57.346;12.150;2023-05-14T07:56:08;4.80;;;4.40;;
14276;SDS011;7222;57.346;12.150;2023-05-14T07:58:35;4.33;;;3.97;;
14276;SDS011;7222;57.346;12.150;2023-05-14T08:01:02;6.17;;;4.60;;
14276;SDS011;7222;57.346;12.150;2023-05-14T08:03:31;6.57;;;4.70;;
14276;SDS011;7222;57.346;12.150;2023-05-14T08:05:58;4.53;;;4.10;;
14276;SDS011;7222;57.346;12.150;2023-05-14T08:08:25;5.17;;;3.90;;
14276;SDS011;7222;57.346;12.150;2023-05-14T08:10:52;3.97;;;3.67;;
14276;SDS011;7222;57.346;12.150;2023-05-14T08:13:21;4.97;;;4.07;;
14276;SDS011;7222;57.346;12.150;2023-05-14T08:15:48;6.20;;;4.83;;
14276;SDS011;7222;57.346;12.150;2023-05-14T08:18:15;5.33;;;4.20;;
14276;SDS011;7222;57.346;12.150;2023-05-14T08:20:42;6.47;;;4.60;;
14276;SDS011;7222;57.346;12.150;2023-05-14T08:23:09;4.23;;;3.93;;
14276;SDS011;7222;57.346;12.150;2023-05-14T08:25:37;4.27;;;3.97;;
14276;SDS011;7222;57.346;12.150;2023-05-14T08:28:04;4.83;;;4.40;;
14276;SDS011;7222;57.346;12.150;2023-05-14T08:30:33;6.03;;;4.60;;
14276;SDS011;7222;57.346;12.150;2023-05-14T08:33:01;4.67;;;4.27;;
14276;SDS011;7222;57.346;12.150;2023-05-14T08:35:28;4.30;;;3.57;;
14276;SDS011;7222;57.346;12.150;2023-05-14T08:37:55;4.20;;;3.90;;
14276;SDS011;7222;57.346;12.150;2023-05-14T08:40:22;4.73;;;4.27;;
14276;SDS011;7222;57.346;12.150;2023-05-14T08:42:50;4.73;;;4.23;;
14276;SDS011;7222;57.346;12.150;2023-05-14T08:45:18;4.73;;;4.30;;
14276;SDS011;7222;57.346;12.150;2023-05-14T08:47:47;4.73;;;4.33;;
14276;SDS011;7222;57.346;12.150;2023-05-14T08:50:15;6.60;;;3.73;;
14276;SDS011;7222;57.346;12.150;2023-05-14T08:52:43;4.37;;;3.97;;
14276;SDS011;7222;57.346;12.150;2023-05-14T08:55:11;5.27;;;4.20;;
14276;SDS011;7222;57.346;12.150;2023-05-14T08:57:38;4.80;;;4.40;;
14276;SDS011;7222;57.346;12.150;2023-05-14T09:00:06;5.37;;;4.87;;
14276;SDS011;7222;57.346;12.150;2023-05-14T09:02:35;5.63;;;4.23;;
14276;SDS011;7222;57.346;12.150;2023-05-14T09:05:06;4.67;;;4.23;;
14276;SDS011;7222;57.346;12.150;2023-05-14T09:07:34;5.23;;;4.10;;
14276;SDS011;7222;57.346;12.150;2023-05-14T09:10:02;4.43;;;4.03;;
14276;SDS011;7222;57.346;12.150;2023-05-14T09:12:29;6.30;;;4.20;;
14276;SDS011;7222;57.346;12.150;2023-05-14T09:14:56;5.03;;;4.53;;
14276;SDS011;7222;57.346;12.150;2023-05-14T09:17:24;6.50;;;4.50;;
14276;SDS011;7222;57.346;12.150;2023-05-14T09:19:51;4.57;;;4.00;;
14276;SDS011;7222;57.346;12.150;2023-05-14T09:22:20;5.87;;;4.10;;
14276;SDS011;7222;57.346;12.150;2023-05-14T09:24:51;4.60;;;4.30;;
14276;SDS011;7222;57.346;12.150;2023-05-14T09:27:28;8.17;;;4.30;;
14276;SDS011;7222;57.346;12.150;2023-05-14T09:30:03;5.13;;;3.90;;
14276;SDS011;7222;57.346;12.150;2023-05-14T09:32:34;5.03;;;4.13;;
14276;SDS011;7222;57.346;12.150;2023-05-14T09:35:11;4.10;;;3.67;;
14276;SDS011;7222;57.346;12.150;2023-05-14T09:37:43;5.17;;;3.50;;
14276;SDS011;7222;57.346;12.150;2023-05-14T09:40:11;4.20;;;3.23;;
14276;SDS011;7222;57.346;12.150;2023-05-14T09:42:39;4.03;;;3.60;;
14276;SDS011;7222;57.346;12.150;2023-05-14T09:45:06;3.67;;;3.30;;
14276;SDS011;7222;57.346;12.150;2023-05-14T09:47:34;2.90;;;2.70;;
14276;SDS011;7222;57.346;12.150;2023-05-14T09:50:02;3.70;;;2.93;;
14276;SDS011;7222;57.346;12.150;2023-05-14T09:52:29;3.50;;;3.20;;
14276;SDS011;7222;57.346;12.150;2023-05-14T09:54:58;4.63;;;3.20;;
14276;SDS011;7222;57.346;12.150;2023-05-14T09:57:26;4.17;;;3.10;;
14276;SDS011;7222;57.346;12.150;2023-05-14T09:59:53;4.50;;;3.70;;
14276;SDS011;7222;57.346;12.150;2023-05-14T10:02:21;3.53;;;3.23;;
14276;SDS011;7222;57.346;12.150;2023-05-14T10:04:49;4.67;;;3.37;;
14276;SDS011;7222;57.346;12.150;2023-05-14T10:07:20;4.67;;;3.20;;
14276;SDS011;7222;57.346;12.150;2023-05-14T10:09:49;3.00;;;2.80;;
14276;SDS011;7222;57.346;12.150;2023-05-14T10:12:23;3.10;;;2.90;;
14276;SDS011;7222;57.346;12.150;2023-05-14T10:14:54;3.93;;;3.07;;
14276;SDS011;7222;57.346;12.150;2023-05-14T10:17:25;3.33;;;3.07;;
14276;SDS011;7222;57.346;12.150;2023-05-14T10:19:57;5.20;;;3.00;;
14276;SDS011;7222;57.346;12.150;2023-05-14T10:22:27;4.27;;;3.00;;
14276;SDS011;7222;57.346;12.150;2023-05-14T10:24:56;3.40;;;3.10;;
14276;SDS011;7222;57.346;12.150;2023-05-14T10:27:25;4.03;;;3.07;;
14276;SDS011;7222;57.346;12.150;2023-05-14T10:29:53;3.40;;;3.20;;
14276;SDS011;7222;57.346;12.150;2023-05-14T10:32:21;3.63;;;3.33;;
14276;SDS011;7222;57.346;12.150;2023-05-14T10:34:50;2.97;;;2.77;;
14276;SDS011;7222;57.346;12.150;2023-05-14T10:37:18;5.50;;;3.53;;
14276;SDS011;7222;57.346;12.150;2023-05-14T10:39:46;3.37;;;3.00;;
14276;SDS011;7222;57.346;12.150;2023-05-14T10:42:16;3.77;;;3.43;;
14276;SDS011;7222;57.346;12.150;2023-05-14T10:44:49;3.50;;;3.20;;
14276;SDS011;7222;57.346;12.150;2023-05-14T10:47:19;5.40;;;3.40;;
14276;SDS011;7222;57.346;12.150;2023-05-14T10:49:47;3.67;;;3.37;;
14276;SDS011;7222;57.346;12.150;2023-05-14T10:52:15;4.17;;;3.60;;
14276;SDS011;7222;57.346;12.150;2023-05-14T10:54:48;4.50;;;3.73;;
14276;SDS011;7222;57.346;12.150;2023-05-14T10:57:16;5.27;;;3.90;;
14276;SDS011;7222;57.346;12.150;2023-05-14T10:59:45;5.73;;;4.13;;
14276;SDS011;7222;57.346;12.150;2023-05-14T11:02:22;6.03;;;4.23;;
14276;SDS011;7222;57.346;12.150;2023-05-14T11:04:57;4.80;;;4.37;;
14276;SDS011;7222;57.346;12.150;2023-05-14T11:07:28;8.03;;;4.30;;
14276;SDS011;7222;57.346;12.150;2023-05-14T11:09:58;4.27;;;3.87;;
14276;SDS011;7222;57.346;12.150;2023-05-14T11:12:26;4.57;;;4.10;;
14276;SDS011;7222;57.346;12.150;2023-05-14T11:14:54;5.50;;;4.77;;
14276;SDS011;7222;57.346;12.150;2023-05-14T11:17:25;4.93;;;4.30;;
14276;SDS011;7222;57.346;12.150;2023-05-14T11:19:53;5.57;;;4.57;;
14276;SDS011;7222;57.346;12.150;2023-05-14T11:22:20;6.93;;;4.38;;
14276;SDS011;7222;57.346;12.150;2023-05-14T11:24:47;4.78;;;4.28;;
14276;SDS011;7222;57.346;12.150;2023-05-14T11:27:15;4.90;;;4.50;;
14276;SDS011;7222;57.346;12.150;2023-05-14T11:29:43;4.70;;;4.30;;
14276;SDS011;7222;57.346;12.150;2023-05-14T11:32:11;4.68;;;3.88;;
14276;SDS011;7222;57.346;12.150;2023-05-14T11:34:40;4.97;;;4.22;;
14276;SDS011;7222;57.346;12.150;2023-05-14T11:37:08;5.25;;;4.50;;
14276;SDS011;7222;57.346;12.150;2023-05-14T11:39:36;4.88;;;4.25;;
14276;SDS011;7222;57.346;12.150;2023-05-14T11:42:04;4.80;;;4.32;;
14276;SDS011;7222;57.346;12.150;2023-05-14T11:44:38;4.60;;;3.88;;
14276;SDS011;7222;57.346;12.150;2023-05-14T11:47:06;5.13;;;4.00;;
14276;SDS011;7222;57.346;12.150;2023-05-14T11:49:33;3.95;;;3.65;;
14276;SDS011;7222;57.346;12.150;2023-05-14T11:52:03;4.05;;;3.67;;
14276;SDS011;7222;57.346;12.150;2023-05-14T11:54:32;4.85;;;4.03;;
14276;SDS011;7222;57.346;12.150;2023-05-14T11:57:00;5.90;;;4.57;;
14276;SDS011;7222;57.346;12.150;2023-05-14T11:59:29;5.20;;;4.30;;
14276;SDS011;7222;57.346;12.150;2023-05-14T12:01:57;4.28;;;3.85;;
14276;SDS011;7222;57.346;12.150;2023-05-14T12:04:24;4.97;;;4.50;;
14276;SDS011;7222;57.346;12.150;2023-05-14T12:06:51;5.85;;;4.30;;
14276;SDS011;7222;57.346;12.150;2023-05-14T12:09:20;4.15;;;3.78;;
14276;SDS011;7222;57.346;12.150;2023-05-14T12:11:49;4.32;;;4.03;;
14276;SDS011;7222;57.346;12.150;2023-05-14T12:14:17;4.05;;;3.75;;
14276;SDS011;7222;57.346;12.150;2023-05-14T12:16:46;4.53;;;3.85;;
14276;SDS011;7222;57.346;12.150;2023-05-14T12:19:14;4.63;;;3.88;;
14276;SDS011;7222;57.346;12.150;2023-05-14T12:21:42;5.53;;;3.90;;
14276;SDS011;7222;57.346;12.150;2023-05-14T12:24:11;4.93;;;4.15;;
14276;SDS011;7222;57.346;12.150;2023-05-14T12:26:40;4.10;;;3.70;;
14276;SDS011;7222;57.346;12.150;2023-05-14T12:29:11;4.00;;;3.70;;
14276;SDS011;7222;57.346;12.150;2023-05-14T12:31:43;3.83;;;3.42;;
14276;SDS011;7222;57.346;12.150;2023-05-14T12:34:12;3.33;;;3.05;;
14276;SDS011;7222;57.346;12.150;2023-05-14T12:36:39;3.40;;;3.10;;
14276;SDS011;7222;57.346;12.150;2023-05-14T12:39:07;3.33;;;3.10;;
14276;SDS011;7222;57.346;12.150;2023-05-14T12:41:34;3.40;;;3.15;;
14276;SDS011;7222;57.346;12.150;2023-05-14T12:44:03;4.07;;;3.70;;
14276;SDS011;7222;57.346;12.150;2023-05-14T12:46:31;3.67;;;3.38;;
14276;SDS011;7222;57.346;12.150;2023-05-14T12:48:59;3.92;;;2.90;;
14276;SDS011;7222;57.346;12.150;2023-05-14T12:51:25;3.63;;;2.92;;
14276;SDS011;7222;57.346;12.150;2023-05-14T12:53:52;3.88;;;3.45;;
14276;SDS011;7222;57.346;12.150;2023-05-14T12:56:19;3.70;;;3.40;;
14276;SDS011;7222;57.346;12.150;2023-05-14T12:58:51;3.42;;;3.13;;
14276;SDS011;7222;57.346;12.150;2023-05-14T13:01:20;3.65;;;3.42;;
14276;SDS011;7222;57.346;12.150;2023-05-14T13:03:47;3.92;;;3.10;;
14276;SDS011;7222;57.346;12.150;2023-05-14T13:06:14;3.75;;;3.45;;
14276;SDS011;7222;57.346;12.150;2023-05-14T13:08:42;3.08;;;2.88;;
14276;SDS011;7222;57.346;12.150;2023-05-14T13:11:09;3.08;;;2.72;;
14276;SDS011;7222;57.346;12.150;2023-05-14T13:13:36;2.63;;;2.40;;
14276;SDS011;7222;57.346;12.150;2023-05-14T13:16:03;2.92;;;2.72;;
14276;SDS011;7222;57.346;12.150;2023-05-14T13:18:31;3.10;;;2.90;;
14276;SDS011;7222;57.346;12.150;2023-05-14T13:20:58;3.00;;;2.80;;
14276;SDS011;7222;57.346;12.150;2023-05-14T13:23:28;3.03;;;2.78;;
14276;SDS011;7222;57.346;12.150;2023-05-14T13:25:55;3.40;;;3.10;;
14276;SDS011;7222;57.346;12.150;2023-05-14T13:28:21;3.45;;;3.10;;
14276;SDS011;7222;57.346;12.150;2023-05-14T13:31:02;2.95;;;2.75;;
14276;SDS011;7222;57.346;12.150;2023-05-14T13:33:32;3.22;;;2.90;;
14276;SDS011;7222;57.346;12.150;2023-05-14T13:36:00;3.20;;;2.90;;
14276;SDS011;7222;57.346;12.150;2023-05-14T13:38:27;4.20;;;2.63;;
14276;SDS011;7222;57.346;12.150;2023-05-14T13:40:54;4.80;;;2.70;;
14276;SDS011;7222;57.346;12.150;2023-05-14T13:43:26;3.92;;;2.70;;
14276;SDS011;7222;57.346;12.150;2023-05-14T13:45:53;3.40;;;3.10;;
14276;SDS011;7222;57.346;12.150;2023-05-14T13:48:20;4.30;;;2.63;;
14276;SDS011;7222;57.346;12.150;2023-05-14T13:50:49;2.80;;;2.60;;
14276;SDS011;7222;57.346;12.150;2023-05-14T13:53:16;3.28;;;2.97;;
14276;SDS011;7222;57.346;12.150;2023-05-14T13:55:44;3.10;;;2.90;;
14276;SDS011;7222;57.346;12.150;2023-05-14T13:58:11;4.22;;;3.13;;
14276;SDS011;7222;57.346;12.150;2023-05-14T14:00:38;3.15;;;2.30;;
14276;SDS011;7222;57.346;12.150;2023-05-14T14:03:06;4.35;;;2.78;;
14276;SDS011;7222;57.346;12.150;2023-05-14T14:05:33;2.97;;;2.70;;
14276;SDS011;7222;57.346;12.150;2023-05-14T14:08:01;3.80;;;2.80;;
14276;SDS011;7222;57.346;12.150;2023-05-14T14:10:29;4.07;;;2.65;;
14276;SDS011;7222;57.346;12.150;2023-05-14T14:12:56;3.10;;;2.60;;
14276;SDS011;7222;57.346;12.150;2023-05-14T14:15:23;3.77;;;2.33;;
14276;SDS011;7222;57.346;12.150;2023-05-14T14:17:50;2.80;;;2.20;;
14276;SDS011;7222;57.346;12.150;2023-05-14T14:20:17;4.05;;;2.35;;
14276;SDS011;7222;57.346;12.150;2023-05-14T14:22:44;3.67;;;2.30;;
14276;SDS011;7222;57.346;12.150;2023-05-14T14:25:12;2.67;;;2.47;;
14276;SDS011;7222;57.346;12.150;2023-05-14T14:27:39;1.90;;;1.80;;
14276;SDS011;7222;57.346;12.150;2023-05-14T14:30:07;2.30;;;2.20;;
14276;SDS011;7222;57.346;12.150;2023-05-14T14:32:39;3.20;;;2.50;;
14276;SDS011;7222;57.346;12.150;2023-05-14T14:35:08;2.40;;;2.30;;
14276;SDS011;7222;57.346;12.150;2023-05-14T14:37:35;3.15;;;2.33;;
14276;SDS011;7222;57.346;12.150;2023-05-14T14:40:02;3.58;;;2.20;;
14276;SDS011;7222;57.346;12.150;2023-05-14T14:42:33;3.25;;;2.40;;
14276;SDS011;7222;57.346;12.150;2023-05-14T14:45:01;2.42;;;2.20;;
14276;SDS011;7222;57.346;12.150;2023-05-14T14:47:28;2.92;;;2.40;;
14276;SDS011;7222;57.346;12.150;2023-05-14T14:49:55;3.03;;;2.30;;
14276;SDS011;7222;57.346;12.150;2023-05-14T14:52:22;2.53;;;2.33;;